Terminal Aerodrome Forecast
Issued by NWS North Platte, NE

Home | Current Version | Previous Version | Text Only | Print | Product List | Glossary Off
Versions: 1 2 3 4 5 6 7 8 9 10 11 12 13 14

354
FTUS43 KLBF 161720
TAFVTN
TAF
KVTN 161720Z 1618/1718 32010KT P6SM OVC015
     FM162200 33009KT P6SM SCT035
     FM170000 34008KT P6SM FEW120
     FM170300 01004KT P6SM SKC
     FM171500 16004KT P6SM SCT080=

USA.gov is the U.S. government's official web portal to all federal, state and local government web resources and services.